Time;durP1;ratioP1;P1;durP2;ratioP2;P2;SDS_P1;SDS_P2;PMS_P1;PMS_P2;Temp;Humidity;BMP_temperature;BMP_pressure;BME280_temperature;BME280_humidity;BME280_pressure;Samples;Min_cycle;Max_cycle;Signal;HPM_P1;HPM_P2
2024/01/09 00:00:48;;;;;;;6.67;3.63;;;-2.00;1.00;;;;;;5072656;28;20169;-82
2024/01/09 00:03:14;;;;;;;7.03;4.87;;;-2.00;1.00;;;;;;5071635;28;20172;-80
2024/01/09 00:05:39;;;;;;;5.80;4.33;;;-2.00;1.00;;;;;;5073131;28;20179;-83
2024/01/09 00:08:05;;;;;;;8.03;4.73;;;-2.00;1.00;;;;;;5073214;28;20769;-82
2024/01/09 00:10:31;;;;;;;8.17;5.37;;;-2.00;1.00;;;;;;5072234;28;20525;-80
2024/01/09 00:12:58;;;;;;;9.20;5.13;;;-2.00;1.00;;;;;;5073305;28;20164;-80
2024/01/09 00:15:24;;;;;;;7.27;4.77;;;-2.00;1.00;;;;;;5072588;28;20218;-81
2024/01/09 00:17:50;;;;;;;8.60;5.53;;;-2.00;1.00;;;;;;5070965;28;20535;-83
2024/01/09 00:20:16;;;;;;;6.37;3.90;;;-2.00;1.00;;;;;;5071455;28;20180;-80
2024/01/09 00:22:42;;;;;;;6.60;4.97;;;-2.00;1.00;;;;;;5073037;28;20774;-80
2024/01/09 00:25:08;;;;;;;6.03;3.50;;;-1.90;1.00;;;;;;5072991;28;20184;-82
2024/01/09 00:27:35;;;;;;;7.73;4.93;;;-2.10;1.00;;;;;;5070941;28;20160;-83
2024/01/09 00:30:01;;;;;;;7.73;5.23;;;-2.10;1.00;;;;;;5071726;28;20176;-81
2024/01/09 00:32:27;;;;;;;6.23;4.70;;;-2.10;1.00;;;;;;5071507;28;20613;-81
2024/01/09 00:34:53;;;;;;;7.13;5.17;;;-2.10;1.00;;;;;;5071918;28;20208;-80
2024/01/09 00:37:19;;;;;;;9.83;5.83;;;-2.10;1.00;;;;;;5072323;28;20227;-84
2024/01/09 00:39:44;;;;;;;8.23;5.23;;;-2.10;1.00;;;;;;5071118;28;20582;-80
2024/01/09 00:42:10;;;;;;;11.53;5.27;;;-2.10;1.00;;;;;;5071750;28;20244;-82
2024/01/09 00:44:36;;;;;;;8.73;4.40;;;-2.10;1.00;;;;;;5070744;28;20655;-81
2024/01/09 00:47:02;;;;;;;5.93;4.23;;;-2.10;1.00;;;;;;5070194;28;20691;-84
2024/01/09 00:49:28;;;;;;;6.83;5.07;;;-2.20;1.00;;;;;;5070902;28;20168;-80
2024/01/09 00:51:54;;;;;;;7.13;4.73;;;-2.10;1.00;;;;;;5076468;28;20669;-81
2024/01/09 00:54:20;;;;;;;8.53;4.27;;;-2.20;1.00;;;;;;5095894;28;20203;-82
2024/01/09 00:56:46;;;;;;;7.67;4.70;;;-2.20;1.00;;;;;;5095009;28;20643;-80
2024/01/09 00:59:11;;;;;;;9.37;3.93;;;-2.20;1.00;;;;;;5093693;28;20180;-83
2024/01/09 01:01:38;;;;;;;7.00;5.20;;;-2.30;1.00;;;;;;5096515;28;20183;-81
2024/01/09 01:04:05;;;;;;;7.93;5.00;;;-2.20;1.00;;;;;;5096305;28;20164;-79
2024/01/09 01:06:43;;;;;;;8.00;5.30;;;-2.20;1.00;;;;;;5094044;28;20176;-81
2024/01/09 01:09:09;;;;;;;7.23;4.17;;;-2.30;1.00;;;;;;5094524;28;20179;-82
2024/01/09 01:11:35;;;;;;;6.53;4.50;;;-2.30;1.00;;;;;;5096512;28;20228;-82
2024/01/09 01:14:02;;;;;;;5.97;3.77;;;-2.30;1.00;;;;;;5094151;28;20180;-81
2024/01/09 01:16:28;;;;;;;8.20;5.07;;;-2.20;1.00;;;;;;5094661;28;20175;-81
2024/01/09 01:18:53;;;;;;;6.63;3.63;;;-2.30;1.00;;;;;;5094361;28;20163;-83
2024/01/09 01:21:19;;;;;;;8.03;4.83;;;-2.30;1.00;;;;;;5094977;28;20176;-83
2024/01/09 01:23:45;;;;;;;8.80;5.87;;;-2.30;1.00;;;;;;5095982;28;20168;-82
2024/01/09 01:26:11;;;;;;;8.17;4.13;;;-2.30;1.00;;;;;;5094577;28;20191;-79
2024/01/09 01:28:36;;;;;;;7.10;4.67;;;-2.20;1.00;;;;;;5093642;28;20175;-81
2024/01/09 01:31:03;;;;;;;7.80;4.67;;;-2.30;1.00;;;;;;5095150;28;20264;-80
2024/01/09 01:33:29;;;;;;;7.00;4.37;;;-2.30;1.00;;;;;;5095690;28;20163;-81
2024/01/09 01:35:55;;;;;;;5.73;4.10;;;-2.30;1.00;;;;;;5093753;28;20245;-80
2024/01/09 01:38:20;;;;;;;8.37;5.30;;;-2.40;1.00;;;;;;5094825;28;20640;-80
2024/01/09 01:40:46;;;;;;;7.30;4.80;;;-2.30;1.00;;;;;;5094905;28;20175;-80
2024/01/09 01:43:12;;;;;;;7.13;4.93;;;-2.40;1.00;;;;;;5093971;28;20175;-80
2024/01/09 01:45:38;;;;;;;9.03;4.37;;;-2.40;1.00;;;;;;5094505;28;20176;-81
2024/01/09 01:48:04;;;;;;;6.83;4.57;;;-2.40;1.00;;;;;;5095757;28;20199;-80
2024/01/09 01:50:31;;;;;;;7.57;5.13;;;-2.40;1.00;;;;;;5094593;28;20177;-82
2024/01/09 01:52:59;;;;;;;8.33;4.83;;;-2.40;1.00;;;;;;5093905;28;20171;-81
2024/01/09 01:55:25;;;;;;;7.50;4.70;;;-2.40;1.00;;;;;;5093309;28;20714;-83
2024/01/09 01:57:54;;;;;;;5.93;4.00;;;-2.40;1.00;;;;;;5095191;28;20183;-80
2024/01/09 02:00:21;;;;;;;7.53;5.00;;;-2.40;1.00;;;;;;5095038;28;20163;-81
2024/01/09 02:02:48;;;;;;;8.20;4.40;;;-2.40;1.00;;;;;;5093194;28;20168;-80
2024/01/09 02:05:16;;;;;;;9.07;5.40;;;-2.50;1.00;;;;;;5094346;28;20198;-81
2024/01/09 02:07:51;;;;;;;6.60;4.27;;;-2.50;1.00;;;;;;5094868;28;20195;-80
2024/01/09 02:10:17;;;;;;;9.67;4.40;;;-2.50;1.00;;;;;;5093969;28;20666;-79
2024/01/09 02:12:43;;;;;;;7.17;5.00;;;-2.50;1.00;;;;;;5094734;28;20178;-82
2024/01/09 02:15:09;;;;;;;6.97;4.70;;;-2.50;1.00;;;;;;5093507;28;20203;-82
2024/01/09 02:17:36;;;;;;;9.40;4.83;;;-2.50;1.00;;;;;;5095206;28;20235;-81
2024/01/09 02:20:09;;;;;;;9.97;5.73;;;-2.50;1.00;;;;;;5092661;28;20205;-81
2024/01/09 02:22:35;;;;;;;7.53;5.10;;;-2.50;1.00;;;;;;5094287;28;20428;-80
2024/01/09 02:25:03;;;;;;;6.80;4.90;;;-2.50;1.00;;;;;;5093700;28;20341;-80
2024/01/09 02:28:22;;;;;;;8.50;5.57;;;-2.60;1.00;;;;;;5093155;28;20179;-81
2024/01/09 02:30:48;;;;;;;7.87;4.57;;;-2.60;1.00;;;;;;5034915;28;20177;-80
2024/01/09 02:33:14;;;;;;;7.03;4.97;;;-2.60;1.00;;;;;;5091169;28;20313;-80
2024/01/09 02:35:40;;;;;;;5.20;3.97;;;-2.60;1.00;;;;;;5093812;28;20301;-80
2024/01/09 02:38:06;;;;;;;8.57;5.43;;;-2.60;1.00;;;;;;5095049;28;20229;-81
2024/01/09 02:40:32;;;;;;;7.77;5.00;;;-2.60;1.00;;;;;;5093442;28;20251;-82
2024/01/09 02:42:58;;;;;;;9.17;5.87;;;-2.60;1.00;;;;;;5093516;28;20578;-82
2024/01/09 02:45:23;;;;;;;8.40;5.40;;;-2.60;1.00;;;;;;5092402;28;20203;-81
2024/01/09 02:47:49;;;;;;;8.03;4.87;;;-2.60;1.00;;;;;;5094028;28;20646;-79
2024/01/09 02:50:15;;;;;;;7.50;4.47;;;-2.70;1.00;;;;;;5092749;28;20650;-80
2024/01/09 02:52:41;;;;;;;6.67;4.37;;;-2.70;1.00;;;;;;5093701;28;20164;-81
2024/01/09 02:55:06;;;;;;;6.20;4.33;;;-2.70;1.00;;;;;;5092347;28;20207;-80
2024/01/09 02:57:32;;;;;;;7.30;4.47;;;-2.70;1.00;;;;;;5093133;28;20205;-82
2024/01/09 02:59:58;;;;;;;9.17;5.43;;;-2.70;1.00;;;;;;5093227;28;20631;-82
2024/01/09 03:02:23;;;;;;;7.33;4.87;;;-2.70;1.00;;;;;;5092826;28;20172;-82
2024/01/09 03:04:49;;;;;;;9.27;4.93;;;-2.80;1.00;;;;;;5092665;28;20171;-82
2024/01/09 03:07:15;;;;;;;7.07;4.50;;;-2.80;1.00;;;;;;5092755;28;20176;-79
2024/01/09 03:09:43;;;;;;;7.67;4.47;;;-2.80;1.00;;;;;;5094292;28;20658;-82
2024/01/09 03:12:09;;;;;;;6.93;4.73;;;-2.80;1.00;;;;;;5093507;28;20156;-80
2024/01/09 03:14:37;;;;;;;9.30;4.80;;;-2.80;1.00;;;;;;5091508;28;20252;-80
2024/01/09 03:17:04;;;;;;;5.83;3.80;;;-2.80;1.00;;;;;;5092685;28;20176;-82
2024/01/09 03:19:31;;;;;;;7.50;4.90;;;-2.80;1.00;;;;;;5092539;28;20195;-81
2024/01/09 03:21:57;;;;;;;6.57;4.67;;;-2.80;1.00;;;;;;5093271;28;20506;-80
2024/01/09 03:24:22;;;;;;;7.67;5.43;;;-2.80;1.00;;;;;;5092382;28;20198;-80
2024/01/09 03:26:48;;;;;;;7.20;4.90;;;-2.80;1.00;;;;;;5092353;28;20163;-80
2024/01/09 03:29:17;;;;;;;6.50;4.50;;;-2.80;1.00;;;;;;5093104;28;20175;-82
2024/01/09 03:31:43;;;;;;;8.03;4.97;;;-2.80;1.00;;;;;;5091785;28;20176;-80
2024/01/09 03:34:09;;;;;;;7.87;4.93;;;-2.90;1.00;;;;;;5092622;28;20527;-80
2024/01/09 03:36:34;;;;;;;9.77;5.60;;;-2.80;1.00;;;;;;5091970;28;20182;-80
2024/01/09 03:39:00;;;;;;;7.83;5.63;;;-2.90;1.00;;;;;;5091284;28;20669;-81
2024/01/09 03:41:26;;;;;;;7.40;4.80;;;-2.80;1.00;;;;;;5093783;28;20529;-80
2024/01/09 03:43:51;;;;;;;8.53;5.60;;;-2.80;1.00;;;;;;5092653;28;20639;-80
2024/01/09 03:46:17;;;;;;;8.10;5.40;;;-2.80;1.00;;;;;;5093275;28;20167;-81
2024/01/09 03:48:43;;;;;;;10.37;5.47;;;-2.90;1.00;;;;;;5092570;28;20191;-80
2024/01/09 03:51:08;;;;;;;8.00;5.27;;;-2.90;1.00;;;;;;5092312;28;20528;-81
2024/01/09 03:53:34;;;;;;;7.37;4.63;;;-2.90;1.00;;;;;;5091308;28;20175;-81
2024/01/09 03:56:00;;;;;;;7.83;4.70;;;-2.80;1.00;;;;;;5092037;28;20728;-81
2024/01/09 03:58:25;;;;;;;8.97;5.77;;;-2.90;1.00;;;;;;5092047;28;20198;-80
2024/01/09 04:00:52;;;;;;;7.60;4.97;;;-2.90;1.00;;;;;;5092293;28;20206;-82
2024/01/09 04:03:17;;;;;;;7.63;4.97;;;-2.90;1.00;;;;;;5090141;28;20172;-82
2024/01/09 04:05:43;;;;;;;10.07;5.23;;;-2.90;1.00;;;;;;5090100;28;20316;-81
2024/01/09 04:08:09;;;;;;;8.93;5.20;;;-2.90;1.00;;;;;;5091503;28;20252;-81
2024/01/09 04:10:35;;;;;;;10.90;6.23;;;-2.90;1.00;;;;;;5091771;28;20187;-80
2024/01/09 04:13:01;;;;;;;8.10;5.20;;;-2.90;1.00;;;;;;5091503;28;20172;-80
2024/01/09 04:15:27;;;;;;;7.10;4.93;;;-2.90;1.00;;;;;;5091340;28;20698;-80
2024/01/09 04:17:52;;;;;;;7.47;4.53;;;-3.00;1.00;;;;;;5092096;28;20163;-80
2024/01/09 04:20:18;;;;;;;7.17;5.00;;;-3.00;1.00;;;;;;5090106;28;20385;-80
2024/01/09 04:22:44;;;;;;;8.67;5.53;;;-2.90;1.00;;;;;;5090552;28;20662;-82
2024/01/09 04:25:11;;;;;;;8.57;5.50;;;-2.90;1.00;;;;;;5090057;28;20203;-82
2024/01/09 04:27:37;;;;;;;8.43;5.50;;;-3.00;1.00;;;;;;5091851;28;20172;-82
2024/01/09 04:30:03;;;;;;;5.33;3.43;;;-3.00;1.00;;;;;;5091335;28;20187;-80
2024/01/09 04:32:29;;;;;;;8.17;4.30;;;-2.90;1.00;;;;;;5093016;28;20160;-80
2024/01/09 04:34:55;;;;;;;7.40;5.13;;;-3.00;1.00;;;;;;5090875;28;20241;-80
2024/01/09 04:37:20;;;;;;;8.87;5.30;;;-3.00;1.00;;;;;;5093456;28;20175;-80
2024/01/09 04:39:46;;;;;;;8.93;6.00;;;-3.00;1.00;;;;;;5091188;28;20620;-80
2024/01/09 04:42:11;;;;;;;6.93;4.63;;;-3.00;1.00;;;;;;5090220;28;20175;-82
2024/01/09 04:44:37;;;;;;;8.27;4.47;;;-3.00;1.00;;;;;;5092138;28;20635;-80
2024/01/09 04:47:03;;;;;;;6.30;4.43;;;-3.00;1.00;;;;;;5091272;28;20650;-80
2024/01/09 04:49:28;;;;;;;8.97;5.70;;;-3.00;1.00;;;;;;5090383;28;20753;-81
2024/01/09 04:51:54;;;;;;;7.87;4.60;;;-3.00;1.00;;;;;;5092275;28;20712;-79
2024/01/09 04:54:20;;;;;;;9.63;5.37;;;-3.00;1.00;;;;;;5090966;28;20223;-81
2024/01/09 04:56:45;;;;;;;7.60;4.87;;;-3.10;1.00;;;;;;5090989;28;20247;-80
2024/01/09 04:59:11;;;;;;;7.97;5.27;;;-3.10;1.00;;;;;;5090306;28;20171;-82
2024/01/09 05:01:37;;;;;;;8.87;4.97;;;-3.10;1.00;;;;;;5091266;28;20182;-80
2024/01/09 05:04:02;;;;;;;5.57;3.77;;;-3.10;1.00;;;;;;5090145;28;20175;-80
2024/01/09 05:06:28;;;;;;;6.60;4.17;;;-3.10;1.00;;;;;;5092175;28;20172;-83
2024/01/09 05:08:54;;;;;;;8.90;5.33;;;-3.10;1.00;;;;;;5090990;28;20184;-82
2024/01/09 05:11:19;;;;;;;9.13;4.70;;;-3.10;1.00;;;;;;5090941;28;20267;-81
2024/01/09 05:13:45;;;;;;;4.10;2.37;;;-2.90;1.00;;;;;;5091372;28;20202;-81
2024/01/09 05:16:11;;;;;;;6.40;5.47;;;-3.10;1.00;;;;;;5091760;28;20707;-80
2024/01/09 05:18:37;;;;;;;6.70;4.57;;;-3.20;1.00;;;;;;5091776;28;20172;-79
2024/01/09 05:21:03;;;;;;;8.73;5.40;;;-3.20;1.00;;;;;;5090292;28;20548;-80
2024/01/09 05:23:28;;;;;;;8.07;4.90;;;-3.20;1.00;;;;;;5090645;28;20287;-79
2024/01/09 05:25:54;;;;;;;7.07;4.50;;;-3.20;1.00;;;;;;5091227;28;20234;-80
2024/01/09 05:28:20;;;;;;;7.27;4.60;;;-3.20;1.00;;;;;;5092202;28;20222;-81
2024/01/09 05:30:45;;;;;;;7.00;4.53;;;-3.20;1.00;;;;;;5091153;28;20187;-80
2024/01/09 05:33:11;;;;;;;7.03;5.03;;;-3.20;1.00;;;;;;5092389;28;20168;-80
2024/01/09 05:35:36;;;;;;;7.60;4.53;;;-3.20;1.00;;;;;;5089693;28;20211;-80
2024/01/09 05:38:02;;;;;;;9.27;5.10;;;-3.20;1.00;;;;;;5094662;28;20246;-81
2024/01/09 05:40:28;;;;;;;8.47;5.27;;;-3.20;1.00;;;;;;5095557;28;20175;-82
2024/01/09 05:42:54;;;;;;;8.13;4.47;;;-3.20;1.00;;;;;;5095645;28;20168;-82
2024/01/09 05:45:19;;;;;;;6.70;4.00;;;-3.20;1.00;;;;;;5094404;28;20313;-82
2024/01/09 05:47:45;;;;;;;8.53;4.97;;;-3.20;1.00;;;;;;5094094;28;20507;-80
2024/01/09 05:50:11;;;;;;;6.13;3.57;;;-3.30;1.00;;;;;;5093692;28;20632;-82
2024/01/09 05:52:37;;;;;;;7.33;3.70;;;-3.30;1.00;;;;;;5094227;28;20172;-81
2024/01/09 05:55:05;;;;;;;7.53;4.20;;;-3.30;1.00;;;;;;5094262;28;20652;-81
2024/01/09 05:57:30;;;;;;;6.47;4.90;;;-3.40;1.00;;;;;;5093331;28;20657;-79
2024/01/09 05:59:57;;;;;;;5.53;4.40;;;-3.40;1.00;;;;;;5094655;28;20163;-79
2024/01/09 06:02:23;;;;;;;5.50;4.03;;;-3.30;1.00;;;;;;5093623;28;20190;-83
2024/01/09 06:04:49;;;;;;;7.07;3.67;;;-3.30;1.00;;;;;;5097910;28;20172;-80
2024/01/09 06:07:17;;;;;;;5.33;4.03;;;-3.40;1.00;;;;;;5093474;28;20180;-81
2024/01/09 06:09:43;;;;;;;7.60;4.83;;;-3.40;1.00;;;;;;5095540;28;20564;-81
2024/01/09 06:12:08;;;;;;;7.97;5.10;;;-3.40;1.00;;;;;;5092902;28;20172;-82
2024/01/09 06:14:34;;;;;;;8.53;4.10;;;-3.40;1.00;;;;;;5094418;28;20581;-82
2024/01/09 06:17:00;;;;;;;6.47;4.53;;;-3.40;1.00;;;;;;5094097;28;20211;-80
2024/01/09 06:19:26;;;;;;;7.40;4.57;;;-3.40;1.00;;;;;;5092572;28;20195;-80
2024/01/09 06:21:51;;;;;;;7.43;4.27;;;-3.50;1.00;;;;;;5092974;28;20640;-81
2024/01/09 06:24:17;;;;;;;6.10;3.27;;;-3.40;1.00;;;;;;5094587;28;20171;-81
2024/01/09 06:26:43;;;;;;;8.17;4.83;;;-3.50;1.00;;;;;;5093880;28;20541;-82
2024/01/09 06:29:09;;;;;;;7.53;5.53;;;-3.50;1.00;;;;;;5095278;28;20210;-79
2024/01/09 06:31:35;;;;;;;7.07;4.80;;;-3.40;1.00;;;;;;5095290;28;20258;-82
2024/01/09 06:34:01;;;;;;;7.23;4.57;;;-3.40;1.00;;;;;;5092770;28;20727;-80
2024/01/09 06:36:26;;;;;;;7.50;5.13;;;-3.40;1.00;;;;;;5093045;28;20555;-79
2024/01/09 06:38:52;;;;;;;8.63;4.43;;;-3.40;1.00;;;;;;5094609;28;20183;-81
2024/01/09 06:41:18;;;;;;;12.17;5.23;;;-3.50;1.00;;;;;;5101213;28;20267;-80
2024/01/09 06:43:44;;;;;;;7.60;4.80;;;-3.50;1.00;;;;;;5101135;28;20231;-81
2024/01/09 06:46:10;;;;;;;7.03;4.87;;;-3.40;1.00;;;;;;5105048;28;20206;-85
2024/01/09 06:48:35;;;;;;;6.97;4.80;;;-3.50;1.00;;;;;;5091830;28;20171;-80
2024/01/09 06:51:03;;;;;;;6.33;4.47;;;-3.50;1.00;;;;;;5093880;28;20163;-85
2024/01/09 06:53:28;;;;;;;11.07;5.43;;;-3.50;1.00;;;;;;5092307;28;20172;-83
2024/01/09 06:55:54;;;;;;;6.30;3.90;;;-3.50;1.00;;;;;;5092957;28;20666;-84
2024/01/09 06:58:20;;;;;;;4.20;2.80;;;-3.50;1.00;;;;;;5093261;28;20701;-83
2024/01/09 07:00:46;;;;;;;5.47;3.23;;;-3.60;1.00;;;;;;5092105;28;20175;-83
2024/01/09 07:03:11;;;;;;;6.97;5.13;;;-3.60;1.00;;;;;;5087311;28;20168;-85
2024/01/09 07:05:37;;;;;;;10.20;5.17;;;-3.60;1.00;;;;;;5071185;28;20203;-84
2024/01/09 07:08:03;;;;;;;6.10;4.10;;;-3.50;1.00;;;;;;5069545;28;20671;-80
2024/01/09 07:10:29;;;;;;;6.43;4.17;;;-3.60;1.00;;;;;;5072074;28;20176;-80
2024/01/09 07:12:56;;;;;;;7.77;4.53;;;-3.60;1.00;;;;;;5071616;28;20804;-81
2024/01/09 07:15:21;;;;;;;6.23;3.40;;;-3.60;1.00;;;;;;5071765;28;20299;-81
2024/01/09 07:17:47;;;;;;;7.17;5.00;;;-3.50;1.00;;;;;;5070740;28;20265;-83
2024/01/09 07:20:14;;;;;;;6.77;4.67;;;-3.50;1.00;;;;;;5080770;28;20183;-82
2024/01/09 07:22:39;;;;;;;8.07;5.40;;;-3.50;1.00;;;;;;5092430;28;20183;-81
2024/01/09 07:25:05;;;;;;;8.77;5.40;;;-3.50;1.00;;;;;;5089899;28;20528;-83
2024/01/09 07:27:31;;;;;;;5.50;3.47;;;-3.50;1.00;;;;;;5090705;28;20171;-82
2024/01/09 07:29:56;;;;;;;7.07;4.47;;;-3.60;1.00;;;;;;5093070;28;20537;-81
2024/01/09 07:32:22;;;;;;;7.93;4.57;;;-3.60;1.00;;;;;;5091762;28;20571;-82
2024/01/09 07:34:48;;;;;;;6.80;4.10;;;-3.60;1.00;;;;;;5091447;28;20735;-83
2024/01/09 07:37:14;;;;;;;4.93;3.40;;;-3.60;1.00;;;;;;5091725;28;20235;-83
2024/01/09 07:39:40;;;;;;;8.40;4.33;;;-3.60;1.00;;;;;;5090462;28;20221;-83
2024/01/09 07:42:07;;;;;;;7.93;4.70;;;-3.60;1.00;;;;;;5090980;28;20399;-81
2024/01/09 07:44:33;;;;;;;10.60;5.10;;;-3.60;1.00;;;;;;5092425;28;20179;-82
2024/01/09 07:46:59;;;;;;;8.87;4.93;;;-3.60;1.00;;;;;;5092079;28;20172;-84
2024/01/09 07:49:25;;;;;;;10.17;4.33;;;-3.50;1.00;;;;;;5091697;28;20176;-81
2024/01/09 07:51:51;;;;;;;6.23;4.23;;;-3.50;1.00;;;;;;5092918;28;20171;-81
2024/01/09 07:54:16;;;;;;;7.93;4.77;;;-3.50;1.00;;;;;;5093151;28;20179;-82
2024/01/09 07:56:42;;;;;;;8.83;5.37;;;-3.50;1.00;;;;;;5091780;28;20586;-82
2024/01/09 07:59:08;;;;;;;8.63;4.70;;;-3.50;1.00;;;;;;5091772;28;20171;-81
2024/01/09 08:01:34;;;;;;;9.90;5.57;;;-3.50;1.00;;;;;;5089513;28;20184;-82
2024/01/09 08:04:01;;;;;;;8.93;5.27;;;-3.60;1.00;;;;;;5080781;28;20211;-83
2024/01/09 08:06:27;;;;;;;8.13;4.37;;;-3.50;1.00;;;;;;5071583;28;20175;-80
2024/01/09 08:08:52;;;;;;;7.50;4.57;;;-3.60;1.00;;;;;;5070800;28;20180;-82
2024/01/09 08:11:18;;;;;;;5.20;4.07;;;-3.60;1.00;;;;;;5071452;28;20233;-81
2024/01/09 08:13:44;;;;;;;6.70;4.40;;;-3.60;1.00;;;;;;5072833;28;20179;-81
2024/01/09 08:16:10;;;;;;;8.67;5.87;;;-3.60;1.00;;;;;;5069790;28;20203;-80
2024/01/09 08:18:37;;;;;;;7.00;5.10;;;-3.60;1.00;;;;;;5071637;28;20172;-80
2024/01/09 08:21:03;;;;;;;9.93;5.83;;;-3.60;1.00;;;;;;5072439;28;20530;-80
2024/01/09 08:23:28;;;;;;;8.77;4.50;;;-3.60;1.00;;;;;;5075585;28;20674;-82
2024/01/09 08:25:54;;;;;;;7.57;4.97;;;-3.60;1.00;;;;;;5072470;28;20192;-81
2024/01/09 08:28:20;;;;;;;7.90;4.80;;;-3.60;1.00;;;;;;5070957;28;20169;-81
2024/01/09 08:30:46;;;;;;;6.77;4.03;;;-3.60;1.00;;;;;;5070509;28;20555;-82
2024/01/09 08:33:11;;;;;;;9.53;4.93;;;-3.60;1.00;;;;;;5070397;28;20259;-81
2024/01/09 08:35:39;;;;;;;8.40;5.30;;;-3.60;1.00;;;;;;5072494;28;20290;-80
2024/01/09 08:38:04;;;;;;;7.10;4.13;;;-3.50;1.00;;;;;;5071201;28;20629;-83
2024/01/09 08:40:30;;;;;;;10.10;5.50;;;-3.50;1.00;;;;;;5070055;28;20310;-81
2024/01/09 08:42:56;;;;;;;9.57;5.43;;;-3.40;1.00;;;;;;5070945;28;20168;-81
2024/01/09 08:45:22;;;;;;;8.67;4.60;;;-3.40;1.00;;;;;;5073169;28;20176;-80
2024/01/09 08:47:47;;;;;;;8.67;4.93;;;-3.40;1.00;;;;;;5082166;28;20180;-82
2024/01/09 08:50:13;;;;;;;6.30;4.33;;;-3.30;1.00;;;;;;5090502;28;20179;-81
2024/01/09 08:52:39;;;;;;;8.37;5.03;;;-3.30;1.00;;;;;;5091069;28;20168;-82
2024/01/09 08:55:05;;;;;;;6.60;4.37;;;-3.30;1.00;;;;;;5092015;28;20619;-81
2024/01/09 08:57:31;;;;;;;7.50;4.60;;;-3.30;1.00;;;;;;5092538;28;20192;-80
2024/01/09 08:59:57;;;;;;;6.27;4.00;;;-3.30;1.00;;;;;;5091752;28;20176;-81
2024/01/09 09:02:24;;;;;;;7.03;4.03;;;-3.30;1.00;;;;;;5092275;28;20588;-82
2024/01/09 09:04:53;;;;;;;7.27;3.90;;;-3.30;1.00;;;;;;5091061;28;20175;-82
2024/01/09 09:07:18;;;;;;;6.70;3.90;;;-3.30;1.00;;;;;;5092203;28;20203;-83
2024/01/09 09:09:45;;;;;;;7.97;4.77;;;-3.20;1.00;;;;;;5092566;28;20203;-82
2024/01/09 09:12:11;;;;;;;5.10;3.93;;;-3.20;1.00;;;;;;5093815;28;20529;-81
2024/01/09 09:14:37;;;;;;;8.87;3.70;;;-3.20;1.00;;;;;;5095349;28;20245;-83
2024/01/09 09:17:03;;;;;;;5.40;3.80;;;-3.10;1.00;;;;;;5095014;28;20207;-82
2024/01/09 09:19:31;;;;;;;6.47;3.70;;;-3.10;1.00;;;;;;5093739;28;20241;-82
2024/01/09 09:21:57;;;;;;;6.03;4.07;;;-3.10;1.00;;;;;;5095035;28;20294;-80
2024/01/09 09:24:23;;;;;;;7.67;4.90;;;-3.00;1.00;;;;;;5095350;28;20199;-82
2024/01/09 09:26:49;;;;;;;7.43;4.47;;;-3.10;1.00;;;;;;5098086;28;20221;-82
2024/01/09 09:29:15;;;;;;;6.03;3.40;;;-3.10;1.00;;;;;;5098458;28;20176;-81
2024/01/09 09:31:41;;;;;;;7.23;3.93;;;-3.10;1.00;;;;;;5097283;28;20659;-83
2024/01/09 09:34:07;;;;;;;4.27;2.80;;;-3.10;1.00;;;;;;5097926;28;20190;-82
2024/01/09 09:36:33;;;;;;;11.30;4.03;;;-3.10;1.00;;;;;;5097257;28;20207;-82
2024/01/09 09:38:59;;;;;;;4.80;2.97;;;-3.00;1.00;;;;;;5097556;28;20642;-81
2024/01/09 09:41:24;;;;;;;8.67;4.50;;;-3.00;1.00;;;;;;5094255;28;20313;-82
2024/01/09 09:43:56;;;;;;;9.50;4.60;;;-3.00;1.00;;;;;;5095078;28;20199;-83
2024/01/09 09:46:28;;;;;;;6.60;4.57;;;-2.90;1.00;;;;;;5094282;28;20171;-83
2024/01/09 09:48:55;;;;;;;8.10;5.00;;;-2.90;1.00;;;;;;5094532;28;20180;-81
2024/01/09 09:51:24;;;;;;;7.17;5.10;;;-2.80;1.00;;;;;;5095053;28;20178;-83
2024/01/09 09:53:51;;;;;;;4.57;2.87;;;-2.70;1.00;;;;;;5094441;28;20538;-81
2024/01/09 09:56:16;;;;;;;8.70;4.50;;;-2.70;1.00;;;;;;5095669;28;20675;-81
2024/01/09 09:58:42;;;;;;;7.07;4.70;;;-2.70;1.00;;;;;;5094798;28;20174;-82
2024/01/09 10:01:14;;;;;;;6.63;5.13;;;-2.50;1.00;;;;;;5095816;28;20199;-81
2024/01/09 10:04:19;;;;;;;5.47;3.70;;;-2.50;1.00;;;;;;5093935;28;20190;-81
2024/01/09 10:06:48;;;;;;;5.70;4.03;;;-2.50;1.00;;;;;;5094133;28;20183;-81
2024/01/09 10:09:15;;;;;;;8.97;4.13;;;-2.50;1.00;;;;;;5092972;28;20172;-81
2024/01/09 10:11:41;;;;;;;8.37;5.37;;;-2.40;1.00;;;;;;5093667;28;20507;-81
2024/01/09 10:14:10;;;;;;;7.17;4.43;;;-2.40;1.00;;;;;;5094877;28;20253;-81
2024/01/09 10:16:53;;;;;;;10.20;4.27;;;-2.30;1.00;;;;;;5094162;28;20218;-82
2024/01/09 10:19:22;;;;;;;6.13;4.23;;;-2.30;1.00;;;;;;5093907;28;20527;-82
2024/01/09 10:21:48;;;;;;;9.67;5.07;;;-2.10;1.00;;;;;;5093905;28;20172;-80
2024/01/09 10:24:15;;;;;;;8.13;4.70;;;-2.00;1.00;;;;;;5093686;28;20512;-81
2024/01/09 10:26:41;;;;;;;7.93;4.57;;;-2.10;1.00;;;;;;5093527;28;20198;-81
2024/01/09 10:29:10;;;;;;;7.00;4.13;;;-2.10;1.00;;;;;;5094177;28;20179;-83
2024/01/09 10:31:38;;;;;;;6.97;5.07;;;-2.10;1.00;;;;;;5093720;28;20180;-80
2024/01/09 10:34:05;;;;;;;5.83;3.87;;;-2.00;1.00;;;;;;5093470;28;20179;-81
2024/01/09 10:36:31;;;;;;;8.13;4.37;;;-2.00;1.00;;;;;;5094837;28;20267;-81
2024/01/09 10:39:09;;;;;;;6.27;4.00;;;-2.00;1.00;;;;;;5095736;28;20655;-81
2024/01/09 10:41:34;;;;;;;6.40;3.87;;;-2.00;1.00;;;;;;5094647;28;20171;-80
2024/01/09 10:44:01;;;;;;;8.20;4.17;;;-1.90;1.00;;;;;;5092748;28;20172;-81
2024/01/09 10:46:29;;;;;;;8.07;4.53;;;-1.90;99.90;;;;;;5094030;28;20483;-80
2024/01/09 10:48:57;;;;;;;5.53;3.40;;;-1.90;99.90;;;;;;5093119;28;20183;-84
2024/01/09 10:51:23;;;;;;;9.07;4.60;;;-1.70;99.90;;;;;;5093338;28;20178;-82
2024/01/09 10:53:51;;;;;;;6.97;4.57;;;-1.80;99.90;;;;;;5092927;28;20340;-82
2024/01/09 10:56:19;;;;;;;8.43;4.30;;;-1.70;99.90;;;;;;5093245;28;20211;-83
2024/01/09 10:58:46;;;;;;;8.00;4.40;;;-1.60;99.90;;;;;;5093207;28;20258;-82
2024/01/09 11:01:13;;;;;;;8.37;4.77;;;-1.50;99.90;;;;;;5094192;28;20171;-80
2024/01/09 11:03:39;;;;;;;4.60;3.37;;;-1.40;99.90;;;;;;5092587;28;20167;-82
2024/01/09 11:06:07;;;;;;;8.90;3.90;;;-1.40;99.90;;;;;;5093202;28;20182;-81
2024/01/09 11:08:37;;;;;;;5.97;3.17;;;-1.40;99.90;;;;;;5092734;28;20232;-84
2024/01/09 11:11:07;;;;;;;6.63;3.47;;;-1.40;99.90;;;;;;5094114;28;20262;-79
2024/01/09 11:13:37;;;;;;;7.90;4.07;;;-1.50;99.90;;;;;;5095233;28;20175;-82
2024/01/09 11:16:07;;;;;;;9.63;5.30;;;-1.50;99.90;;;;;;5092871;28;20203;-83
2024/01/09 11:18:34;;;;;;;5.93;4.33;;;-1.30;99.90;;;;;;5092516;28;20284;-82
2024/01/09 11:21:04;;;;;;;8.90;5.10;;;-1.00;99.90;;;;;;5092638;28;20175;-81
2024/01/09 11:23:52;;;;;;;10.67;4.83;;;-1.10;99.90;;;;;;5092497;28;20233;-81
2024/01/09 11:26:22;;;;;;;7.17;4.37;;;-1.10;99.90;;;;;;5092652;28;20259;-81
2024/01/09 11:28:48;;;;;;;7.10;3.80;;;-1.00;99.90;;;;;;5093663;28;20525;-80
2024/01/09 11:31:18;;;;;;;8.67;4.70;;;-1.00;99.90;;;;;;5092615;28;20630;-81
2024/01/09 11:33:44;;;;;;;8.13;4.20;;;-1.00;99.90;;;;;;5093633;28;20528;-82
2024/01/09 11:36:14;;;;;;;5.03;3.47;;;-1.00;99.90;;;;;;5091675;28;20207;-81
2024/01/09 11:38:40;;;;;;;6.10;4.03;;;-1.00;99.90;;;;;;5093248;28;20593;-82
2024/01/09 11:41:09;;;;;;;9.47;4.53;;;-0.90;99.90;;;;;;5093607;28;20658;-81
2024/01/09 11:43:56;;;;;;;5.87;4.07;;;-0.80;99.90;;;;;;5092387;28;20714;-80
2024/01/09 11:46:26;;;;;;;8.90;4.20;;;-0.80;99.90;;;;;;5093619;28;20164;-81
2024/01/09 11:48:52;;;;;;;9.83;4.27;;;-0.80;51.90;;;;;;5092701;28;20172;-80
2024/01/09 11:51:18;;;;;;;9.13;5.23;;;-0.90;99.90;;;;;;5091768;28;20181;-81
2024/01/09 11:53:44;;;;;;;8.20;5.10;;;-0.80;99.90;;;;;;5091606;28;20178;-80
2024/01/09 11:56:13;;;;;;;6.47;3.90;;;-0.70;99.90;;;;;;5092652;28;20214;-80
2024/01/09 11:58:39;;;;;;;7.33;4.00;;;-0.70;99.90;;;;;;5092191;28;20171;-81
2024/01/09 12:01:06;;;;;;;6.80;3.93;;;-0.70;99.90;;;;;;5091730;28;20252;-83
2024/01/09 12:03:34;;;;;;;6.83;4.10;;;-0.70;36.30;;;;;;5093343;28;20156;-81
2024/01/09 12:06:04;;;;;;;6.63;3.73;;;-0.70;4.40;;;;;;5091415;28;20220;-82
2024/01/09 12:08:31;;;;;;;6.33;3.70;;;-0.70;99.40;;;;;;5093074;28;20233;-83
2024/01/09 12:10:56;;;;;;;6.83;4.50;;;-0.60;99.90;;;;;;5091868;28;20175;-81
2024/01/09 12:13:22;;;;;;;6.47;3.43;;;-0.60;1.00;;;;;;5090824;28;20574;-81
2024/01/09 12:15:48;;;;;;;7.13;4.30;;;-0.60;1.00;;;;;;5090945;28;20578;-81
2024/01/09 12:18:14;;;;;;;7.53;4.43;;;-0.50;1.00;;;;;;5091437;28;20195;-81
2024/01/09 12:20:41;;;;;;;6.50;3.60;;;-0.40;1.00;;;;;;5090310;28;20180;-81
2024/01/09 12:23:07;;;;;;;5.87;3.70;;;-0.40;1.00;;;;;;5091465;28;20164;-80
2024/01/09 12:25:32;;;;;;;4.83;3.23;;;-0.40;99.90;;;;;;5091243;28;20191;-81
2024/01/09 12:28:00;;;;;;;8.20;4.53;;;-0.40;66.60;;;;;;5092738;28;20159;-81
2024/01/09 12:30:26;;;;;;;7.93;4.20;;;-0.40;99.90;;;;;;5092775;28;20171;-81
2024/01/09 12:32:53;;;;;;;7.70;5.17;;;-0.20;99.90;;;;;;5091119;28;20176;-81
2024/01/09 12:35:20;;;;;;;6.83;5.03;;;0.00;99.90;;;;;;5090208;28;20634;-80
2024/01/09 12:37:46;;;;;;;5.93;3.87;;;0.10;8.30;;;;;;5090854;28;20203;-82
2024/01/09 12:40:16;;;;;;;6.27;3.17;;;0.00;53.10;;;;;;5091821;28;20167;-80
2024/01/09 12:42:41;;;;;;;7.23;4.73;;;-0.10;52.30;;;;;;5091358;28;20168;-81
2024/01/09 12:45:10;;;;;;;7.60;4.53;;;0.00;1.00;;;;;;5091553;28;20168;-82
2024/01/09 12:47:37;;;;;;;7.80;4.50;;;0.10;1.00;;;;;;5093508;28;20635;-81
2024/01/09 12:50:04;;;;;;;6.23;3.77;;;0.10;65.30;;;;;;5096414;28;20171;-80
2024/01/09 12:52:34;;;;;;;7.73;4.53;;;0.20;1.00;;;;;;5097702;28;20177;-81